sensor_id;sensor_type;location;lat;lon;timestamp;P1;durP1;ratioP1;P2;durP2;ratioP2
43325;SDS011;28920;59.862;30.636;2023-02-22T00:02:19;172.27;;;56.83;;
43325;SDS011;28920;59.862;30.636;2023-02-22T00:04:53;185.95;;;53.28;;
43325;SDS011;28920;59.862;30.636;2023-02-22T00:07:19;201.27;;;54.30;;
43325;SDS011;28920;59.862;30.636;2023-02-22T00:09:48;196.15;;;55.78;;
43325;SDS011;28920;59.862;30.636;2023-02-22T00:12:15;181.37;;;54.80;;
43325;SDS011;28920;59.862;30.636;2023-02-22T00:14:42;164.77;;;50.25;;
43325;SDS011;28920;59.862;30.636;2023-02-22T00:17:08;161.95;;;48.67;;
43325;SDS011;28920;59.862;30.636;2023-02-22T00:19:38;169.30;;;50.22;;
43325;SDS011;28920;59.862;30.636;2023-02-22T00:22:05;151.23;;;44.30;;
43325;SDS011;28920;59.862;30.636;2023-02-22T00:24:32;166.50;;;46.83;;
43325;SDS011;28920;59.862;30.636;2023-02-22T00:27:01;161.12;;;46.60;;
43325;SDS011;28920;59.862;30.636;2023-02-22T00:29:28;115.62;;;39.95;;
43325;SDS011;28920;59.862;30.636;2023-02-22T00:31:54;153.27;;;46.67;;
43325;SDS011;28920;59.862;30.636;2023-02-22T00:34:21;145.10;;;47.08;;
43325;SDS011;28920;59.862;30.636;2023-02-22T00:36:49;132.35;;;41.85;;
43325;SDS011;28920;59.862;30.636;2023-02-22T00:39:16;162.25;;;41.72;;
43325;SDS011;28920;59.862;30.636;2023-02-22T00:41:43;112.43;;;37.40;;
43325;SDS011;28920;59.862;30.636;2023-02-22T00:44:10;93.87;;;29.52;;
43325;SDS011;28920;59.862;30.636;2023-02-22T00:46:38;67.20;;;20.92;;
43325;SDS011;28920;59.862;30.636;2023-02-22T00:49:05;84.53;;;22.17;;
43325;SDS011;28920;59.862;30.636;2023-02-22T00:51:31;56.25;;;18.02;;
43325;SDS011;28920;59.862;30.636;2023-02-22T00:53:59;42.65;;;12.98;;
43325;SDS011;28920;59.862;30.636;2023-02-22T00:56:26;42.17;;;13.52;;
43325;SDS011;28920;59.862;30.636;2023-02-22T00:58:53;39.88;;;13.15;;
43325;SDS011;28920;59.862;30.636;2023-02-22T01:01:20;35.40;;;14.07;;
43325;SDS011;28920;59.862;30.636;2023-02-22T01:03:49;25.75;;;10.40;;
43325;SDS011;28920;59.862;30.636;2023-02-22T01:06:15;42.55;;;12.40;;
43325;SDS011;28920;59.862;30.636;2023-02-22T01:08:42;30.37;;;11.93;;
43325;SDS011;28920;59.862;30.636;2023-02-22T01:11:09;36.97;;;12.20;;
43325;SDS011;28920;59.862;30.636;2023-02-22T01:13:37;27.67;;;10.10;;
43325;SDS011;28920;59.862;30.636;2023-02-22T01:16:04;31.80;;;12.00;;
43325;SDS011;28920;59.862;30.636;2023-02-22T01:18:33;32.38;;;10.75;;
43325;SDS011;28920;59.862;30.636;2023-02-22T01:21:00;38.10;;;11.85;;
43325;SDS011;28920;59.862;30.636;2023-02-22T01:23:27;29.80;;;11.88;;
43325;SDS011;28920;59.862;30.636;2023-02-22T01:25:56;32.40;;;12.25;;
43325;SDS011;28920;59.862;30.636;2023-02-22T01:28:23;58.10;;;18.30;;
43325;SDS011;28920;59.862;30.636;2023-02-22T01:30:50;58.03;;;18.77;;
43325;SDS011;28920;59.862;30.636;2023-02-22T01:33:17;69.32;;;19.90;;
43325;SDS011;28920;59.862;30.636;2023-02-22T01:35:44;59.50;;;20.77;;
43325;SDS011;28920;59.862;30.636;2023-02-22T01:38:11;57.13;;;20.98;;
43325;SDS011;28920;59.862;30.636;2023-02-22T01:40:40;56.60;;;20.33;;
43325;SDS011;28920;59.862;30.636;2023-02-22T01:43:15;61.22;;;21.35;;
43325;SDS011;28920;59.862;30.636;2023-02-22T01:48:28;66.97;;;22.70;;
43325;SDS011;28920;59.862;30.636;2023-02-22T01:50:56;58.40;;;22.02;;
43325;SDS011;28920;59.862;30.636;2023-02-22T01:53:26;66.85;;;21.23;;
43325;SDS011;28920;59.862;30.636;2023-02-22T01:55:55;68.10;;;21.87;;
43325;SDS011;28920;59.862;30.636;2023-02-22T01:58:23;69.82;;;20.85;;
43325;SDS011;28920;59.862;30.636;2023-02-22T02:00:49;51.17;;;20.62;;
43325;SDS011;28920;59.862;30.636;2023-02-22T02:03:17;52.33;;;20.25;;
43325;SDS011;28920;59.862;30.636;2023-02-22T02:05:45;60.42;;;19.87;;
43325;SDS011;28920;59.862;30.636;2023-02-22T02:08:15;71.60;;;25.90;;
43325;SDS011;28920;59.862;30.636;2023-02-22T02:10:42;81.23;;;24.13;;
43325;SDS011;28920;59.862;30.636;2023-02-22T02:13:09;71.25;;;22.87;;
43325;SDS011;28920;59.862;30.636;2023-02-22T02:15:56;54.70;;;21.70;;
43325;SDS011;28920;59.862;30.636;2023-02-22T02:18:23;84.87;;;24.02;;
43325;SDS011;28920;59.862;30.636;2023-02-22T02:20:55;85.05;;;25.55;;
43325;SDS011;28920;59.862;30.636;2023-02-22T02:23:37;79.43;;;23.05;;
43325;SDS011;28920;59.862;30.636;2023-02-22T02:26:11;72.37;;;22.15;;
43325;SDS011;28920;59.862;30.636;2023-02-22T02:34:15;77.90;;;25.60;;
43325;SDS011;28920;59.862;30.636;2023-02-22T02:36:46;92.97;;;26.23;;
43325;SDS011;28920;59.862;30.636;2023-02-22T02:39:19;79.90;;;26.48;;
43325;SDS011;28920;59.862;30.636;2023-02-22T02:41:50;146.90;;;34.92;;
43325;SDS011;28920;59.862;30.636;2023-02-22T02:44:21;109.32;;;31.33;;
43325;SDS011;28920;59.862;30.636;2023-02-22T02:46:53;108.18;;;31.00;;
43325;SDS011;28920;59.862;30.636;2023-02-22T02:49:25;98.65;;;28.65;;
43325;SDS011;28920;59.862;30.636;2023-02-22T02:51:53;92.55;;;25.20;;
43325;SDS011;28920;59.862;30.636;2023-02-22T02:54:21;91.60;;;26.70;;
43325;SDS011;28920;59.862;30.636;2023-02-22T02:56:51;67.10;;;23.80;;
43325;SDS011;28920;59.862;30.636;2023-02-22T02:59:25;92.35;;;28.25;;
43325;SDS011;28920;59.862;30.636;2023-02-22T03:01:56;65.05;;;23.20;;
43325;SDS011;28920;59.862;30.636;2023-02-22T03:07:04;120.32;;;36.78;;
43325;SDS011;28920;59.862;30.636;2023-02-22T03:09:37;89.07;;;29.33;;
43325;SDS011;28920;59.862;30.636;2023-02-22T03:12:09;88.85;;;29.05;;
43325;SDS011;28920;59.862;30.636;2023-02-22T03:14:39;84.97;;;27.02;;
43325;SDS011;28920;59.862;30.636;2023-02-22T03:17:10;72.35;;;24.67;;
43325;SDS011;28920;59.862;30.636;2023-02-22T03:22:06;65.82;;;19.75;;
43325;SDS011;28920;59.862;30.636;2023-02-22T03:27:03;46.00;;;16.27;;
43325;SDS011;28920;59.862;30.636;2023-02-22T03:29:35;48.75;;;16.62;;
43325;SDS011;28920;59.862;30.636;2023-02-22T03:32:04;55.08;;;18.45;;
43325;SDS011;28920;59.862;30.636;2023-02-22T03:34:33;42.60;;;16.37;;
43325;SDS011;28920;59.862;30.636;2023-02-22T03:37:02;40.90;;;15.38;;
43325;SDS011;28920;59.862;30.636;2023-02-22T03:39:32;43.45;;;15.95;;
43325;SDS011;28920;59.862;30.636;2023-02-22T03:42:03;50.83;;;14.98;;
43325;SDS011;28920;59.862;30.636;2023-02-22T03:44:32;39.60;;;16.23;;
43325;SDS011;28920;59.862;30.636;2023-02-22T03:47:04;44.25;;;14.40;;
43325;SDS011;28920;59.862;30.636;2023-02-22T03:49:33;34.67;;;15.15;;
43325;SDS011;28920;59.862;30.636;2023-02-22T03:52:00;44.78;;;15.02;;
43325;SDS011;28920;59.862;30.636;2023-02-22T03:54:28;38.83;;;15.10;;
43325;SDS011;28920;59.862;30.636;2023-02-22T03:56:57;39.25;;;13.40;;
43325;SDS011;28920;59.862;30.636;2023-02-22T03:59:25;28.08;;;12.77;;
43325;SDS011;28920;59.862;30.636;2023-02-22T04:01:52;36.40;;;13.62;;
43325;SDS011;28920;59.862;30.636;2023-02-22T04:04:19;37.63;;;13.60;;
43325;SDS011;28920;59.862;30.636;2023-02-22T04:06:48;35.95;;;12.48;;
43325;SDS011;28920;59.862;30.636;2023-02-22T04:09:16;32.40;;;12.93;;
43325;SDS011;28920;59.862;30.636;2023-02-22T04:11:43;29.05;;;12.73;;
43325;SDS011;28920;59.862;30.636;2023-02-22T04:14:11;34.60;;;14.00;;
43325;SDS011;28920;59.862;30.636;2023-02-22T04:16:38;28.98;;;11.85;;
43325;SDS011;28920;59.862;30.636;2023-02-22T04:19:06;28.10;;;12.15;;
43325;SDS011;28920;59.862;30.636;2023-02-22T04:21:33;27.15;;;11.35;;
43325;SDS011;28920;59.862;30.636;2023-02-22T04:24:00;22.48;;;9.65;;
43325;SDS011;28920;59.862;30.636;2023-02-22T04:26:27;30.45;;;10.57;;
43325;SDS011;28920;59.862;30.636;2023-02-22T04:28:54;27.77;;;9.80;;
43325;SDS011;28920;59.862;30.636;2023-02-22T04:31:22;29.52;;;10.75;;
43325;SDS011;28920;59.862;30.636;2023-02-22T04:33:49;27.20;;;10.18;;
43325;SDS011;28920;59.862;30.636;2023-02-22T04:36:16;30.08;;;10.27;;
43325;SDS011;28920;59.862;30.636;2023-02-22T04:38:43;27.92;;;11.52;;
43325;SDS011;28920;59.862;30.636;2023-02-22T04:41:11;30.83;;;10.90;;
43325;SDS011;28920;59.862;30.636;2023-02-22T04:43:38;33.65;;;10.43;;
43325;SDS011;28920;59.862;30.636;2023-02-22T04:46:05;21.27;;;8.98;;
43325;SDS011;28920;59.862;30.636;2023-02-22T04:48:33;27.33;;;9.55;;
43325;SDS011;28920;59.862;30.636;2023-02-22T04:51:00;28.17;;;11.05;;
43325;SDS011;28920;59.862;30.636;2023-02-22T04:53:28;30.62;;;11.25;;
43325;SDS011;28920;59.862;30.636;2023-02-22T04:55:55;30.33;;;11.25;;
43325;SDS011;28920;59.862;30.636;2023-02-22T04:58:22;20.55;;;10.80;;
43325;SDS011;28920;59.862;30.636;2023-02-22T05:00:48;32.65;;;11.77;;
43325;SDS011;28920;59.862;30.636;2023-02-22T05:03:15;31.37;;;11.68;;
43325;SDS011;28920;59.862;30.636;2023-02-22T05:05:42;35.47;;;12.20;;
43325;SDS011;28920;59.862;30.636;2023-02-22T05:08:09;31.52;;;10.63;;
43325;SDS011;28920;59.862;30.636;2023-02-22T05:10:36;22.58;;;9.00;;
43325;SDS011;28920;59.862;30.636;2023-02-22T05:13:02;26.77;;;11.43;;
43325;SDS011;28920;59.862;30.636;2023-02-22T05:15:31;32.47;;;11.43;;
43325;SDS011;28920;59.862;30.636;2023-02-22T05:17:57;29.52;;;11.00;;
43325;SDS011;28920;59.862;30.636;2023-02-22T05:20:25;36.13;;;12.77;;
43325;SDS011;28920;59.862;30.636;2023-02-22T05:22:53;23.58;;;10.38;;
43325;SDS011;28920;59.862;30.636;2023-02-22T05:25:20;25.85;;;9.73;;
43325;SDS011;28920;59.862;30.636;2023-02-22T05:27:50;22.37;;;9.82;;
43325;SDS011;28920;59.862;30.636;2023-02-22T05:30:17;30.25;;;10.77;;
43325;SDS011;28920;59.862;30.636;2023-02-22T05:32:44;27.87;;;9.68;;
43325;SDS011;28920;59.862;30.636;2023-02-22T05:35:12;27.02;;;10.63;;
43325;SDS011;28920;59.862;30.636;2023-02-22T05:37:38;20.75;;;10.00;;
43325;SDS011;28920;59.862;30.636;2023-02-22T05:40:06;24.15;;;9.73;;
43325;SDS011;28920;59.862;30.636;2023-02-22T05:42:33;31.73;;;10.70;;
43325;SDS011;28920;59.862;30.636;2023-02-22T05:44:59;26.48;;;10.73;;
43325;SDS011;28920;59.862;30.636;2023-02-22T05:47:26;24.95;;;10.52;;
43325;SDS011;28920;59.862;30.636;2023-02-22T05:49:52;26.80;;;10.02;;
43325;SDS011;28920;59.862;30.636;2023-02-22T05:52:19;30.02;;;10.57;;
43325;SDS011;28920;59.862;30.636;2023-02-22T05:54:46;26.90;;;10.60;;
43325;SDS011;28920;59.862;30.636;2023-02-22T05:57:13;23.67;;;10.90;;
43325;SDS011;28920;59.862;30.636;2023-02-22T05:59:40;28.05;;;10.43;;
43325;SDS011;28920;59.862;30.636;2023-02-22T06:02:08;28.05;;;9.57;;
43325;SDS011;28920;59.862;30.636;2023-02-22T06:04:35;29.58;;;10.25;;
43325;SDS011;28920;59.862;30.636;2023-02-22T06:07:01;24.52;;;10.07;;
43325;SDS011;28920;59.862;30.636;2023-02-22T06:09:28;26.15;;;9.27;;
43325;SDS011;28920;59.862;30.636;2023-02-22T06:11:55;23.80;;;9.35;;
43325;SDS011;28920;59.862;30.636;2023-02-22T06:14:22;24.87;;;10.00;;
43325;SDS011;28920;59.862;30.636;2023-02-22T06:16:52;29.05;;;10.70;;
43325;SDS011;28920;59.862;30.636;2023-02-22T06:19:19;21.55;;;9.98;;
43325;SDS011;28920;59.862;30.636;2023-02-22T06:21:49;28.23;;;11.57;;
43325;SDS011;28920;59.862;30.636;2023-02-22T06:24:16;25.15;;;10.27;;
43325;SDS011;28920;59.862;30.636;2023-02-22T06:26:43;27.13;;;11.32;;
43325;SDS011;28920;59.862;30.636;2023-02-22T06:29:09;28.75;;;11.30;;
43325;SDS011;28920;59.862;30.636;2023-02-22T06:31:36;33.05;;;13.70;;
43325;SDS011;28920;59.862;30.636;2023-02-22T06:34:03;36.00;;;14.55;;
43325;SDS011;28920;59.862;30.636;2023-02-22T06:36:30;25.98;;;12.02;;
43325;SDS011;28920;59.862;30.636;2023-02-22T06:38:56;25.88;;;12.05;;
43325;SDS011;28920;59.862;30.636;2023-02-22T06:41:23;21.05;;;9.27;;
43325;SDS011;28920;59.862;30.636;2023-02-22T06:43:50;33.47;;;12.82;;
43325;SDS011;28920;59.862;30.636;2023-02-22T06:46:16;27.52;;;11.75;;
43325;SDS011;28920;59.862;30.636;2023-02-22T06:48:45;24.77;;;11.52;;
43325;SDS011;28920;59.862;30.636;2023-02-22T06:51:11;30.37;;;11.73;;
43325;SDS011;28920;59.862;30.636;2023-02-22T06:53:38;23.70;;;12.20;;
43325;SDS011;28920;59.862;30.636;2023-02-22T06:56:05;28.80;;;11.63;;
43325;SDS011;28920;59.862;30.636;2023-02-22T06:58:31;27.08;;;11.05;;
43325;SDS011;28920;59.862;30.636;2023-02-22T07:00:58;25.40;;;10.68;;
43325;SDS011;28920;59.862;30.636;2023-02-22T07:03:27;24.35;;;12.52;;
43325;SDS011;28920;59.862;30.636;2023-02-22T07:05:55;28.00;;;13.13;;
43325;SDS011;28920;59.862;30.636;2023-02-22T07:08:21;28.62;;;13.35;;
43325;SDS011;28920;59.862;30.636;2023-02-22T07:10:48;30.67;;;13.48;;
43325;SDS011;28920;59.862;30.636;2023-02-22T07:13:15;30.02;;;11.63;;
43325;SDS011;28920;59.862;30.636;2023-02-22T07:15:41;23.92;;;12.23;;
43325;SDS011;28920;59.862;30.636;2023-02-22T07:18:08;35.45;;;13.00;;
43325;SDS011;28920;59.862;30.636;2023-02-22T07:20:35;23.45;;;11.45;;
43325;SDS011;28920;59.862;30.636;2023-02-22T07:23:02;29.70;;;14.98;;
43325;SDS011;28920;59.862;30.636;2023-02-22T07:25:29;30.52;;;13.88;;
43325;SDS011;28920;59.862;30.636;2023-02-22T07:27:55;23.90;;;13.45;;
43325;SDS011;28920;59.862;30.636;2023-02-22T07:30:23;29.58;;;12.77;;
43325;SDS011;28920;59.862;30.636;2023-02-22T07:32:50;30.35;;;14.87;;
43325;SDS011;28920;59.862;30.636;2023-02-22T07:35:18;32.58;;;14.68;;
43325;SDS011;28920;59.862;30.636;2023-02-22T07:37:45;29.95;;;13.18;;
43325;SDS011;28920;59.862;30.636;2023-02-22T07:40:14;29.12;;;12.98;;
43325;SDS011;28920;59.862;30.636;2023-02-22T07:45:26;25.80;;;11.75;;
43325;SDS011;28920;59.862;30.636;2023-02-22T07:47:53;33.17;;;12.48;;
43325;SDS011;28920;59.862;30.636;2023-02-22T07:50:21;29.27;;;13.13;;
43325;SDS011;28920;59.862;30.636;2023-02-22T07:52:50;27.48;;;12.00;;
43325;SDS011;28920;59.862;30.636;2023-02-22T07:55:18;26.10;;;12.60;;
43325;SDS011;28920;59.862;30.636;2023-02-22T07:57:45;34.78;;;14.30;;
43325;SDS011;28920;59.862;30.636;2023-02-22T08:00:13;31.65;;;15.57;;
43325;SDS011;28920;59.862;30.636;2023-02-22T08:02:40;25.45;;;12.05;;
43325;SDS011;28920;59.862;30.636;2023-02-22T08:05:07;23.05;;;11.70;;
43325;SDS011;28920;59.862;30.636;2023-02-22T08:07:35;22.58;;;11.63;;
43325;SDS011;28920;59.862;30.636;2023-02-22T08:10:02;26.40;;;12.15;;
43325;SDS011;28920;59.862;30.636;2023-02-22T08:12:32;23.77;;;11.60;;
43325;SDS011;28920;59.862;30.636;2023-02-22T08:14:58;21.67;;;10.95;;
43325;SDS011;28920;59.862;30.636;2023-02-22T08:17:25;26.25;;;13.38;;
43325;SDS011;28920;59.862;30.636;2023-02-22T08:19:52;25.48;;;12.07;;
43325;SDS011;28920;59.862;30.636;2023-02-22T08:22:18;30.00;;;15.73;;
43325;SDS011;28920;59.862;30.636;2023-02-22T08:24:45;25.33;;;11.63;;
43325;SDS011;28920;59.862;30.636;2023-02-22T08:27:12;29.98;;;12.55;;
43325;SDS011;28920;59.862;30.636;2023-02-22T08:29:39;28.25;;;10.77;;
43325;SDS011;28920;59.862;30.636;2023-02-22T08:32:06;26.45;;;13.02;;
43325;SDS011;28920;59.862;30.636;2023-02-22T08:34:32;24.83;;;12.43;;
43325;SDS011;28920;59.862;30.636;2023-02-22T08:36:59;24.10;;;12.65;;
43325;SDS011;28920;59.862;30.636;2023-02-22T08:39:26;22.05;;;11.75;;
43325;SDS011;28920;59.862;30.636;2023-02-22T08:41:52;22.25;;;11.35;;
43325;SDS011;28920;59.862;30.636;2023-02-22T08:44:19;21.75;;;10.82;;
43325;SDS011;28920;59.862;30.636;2023-02-22T08:46:47;20.77;;;10.88;;
43325;SDS011;28920;59.862;30.636;2023-02-22T08:49:13;23.38;;;11.98;;
43325;SDS011;28920;59.862;30.636;2023-02-22T08:51:40;20.95;;;11.60;;
43325;SDS011;28920;59.862;30.636;2023-02-22T08:54:06;21.15;;;11.27;;
43325;SDS011;28920;59.862;30.636;2023-02-22T08:56:33;22.20;;;10.57;;
43325;SDS011;28920;59.862;30.636;2023-02-22T08:58:59;18.27;;;10.85;;
43325;SDS011;28920;59.862;30.636;2023-02-22T09:01:26;23.95;;;12.00;;
43325;SDS011;28920;59.862;30.636;2023-02-22T09:03:54;21.70;;;11.90;;
43325;SDS011;28920;59.862;30.636;2023-02-22T09:06:22;18.73;;;10.55;;
43325;SDS011;28920;59.862;30.636;2023-02-22T09:08:49;24.67;;;10.55;;
43325;SDS011;28920;59.862;30.636;2023-02-22T09:11:15;22.45;;;11.35;;
43325;SDS011;28920;59.862;30.636;2023-02-22T09:13:43;22.48;;;12.15;;
43325;SDS011;28920;59.862;30.636;2023-02-22T09:16:10;18.67;;;10.57;;
43325;SDS011;28920;59.862;30.636;2023-02-22T09:18:37;18.55;;;11.48;;
43325;SDS011;28920;59.862;30.636;2023-02-22T09:21:04;24.87;;;13.18;;
43325;SDS011;28920;59.862;30.636;2023-02-22T09:23:31;19.50;;;10.13;;
43325;SDS011;28920;59.862;30.636;2023-02-22T09:25:58;18.17;;;9.88;;
43325;SDS011;28920;59.862;30.636;2023-02-22T09:28:24;22.17;;;12.25;;
43325;SDS011;28920;59.862;30.636;2023-02-22T09:30:52;17.80;;;10.55;;
43325;SDS011;28920;59.862;30.636;2023-02-22T09:33:19;18.33;;;11.57;;
43325;SDS011;28920;59.862;30.636;2023-02-22T09:35:46;22.92;;;11.32;;
43325;SDS011;28920;59.862;30.636;2023-02-22T09:38:16;19.90;;;10.05;;
43325;SDS011;28920;59.862;30.636;2023-02-22T09:40:44;16.50;;;9.15;;
43325;SDS011;28920;59.862;30.636;2023-02-22T09:43:17;20.92;;;10.30;;
43325;SDS011;28920;59.862;30.636;2023-02-22T09:45:50;20.65;;;10.32;;
43325;SDS011;28920;59.862;30.636;2023-02-22T09:48:19;20.90;;;9.48;;
43325;SDS011;28920;59.862;30.636;2023-02-22T09:50:46;21.67;;;10.10;;
43325;SDS011;28920;59.862;30.636;2023-02-22T09:53:19;19.77;;;10.52;;
43325;SDS011;28920;59.862;30.636;2023-02-22T09:55:55;20.83;;;11.43;;
43325;SDS011;28920;59.862;30.636;2023-02-22T09:58:24;18.90;;;9.15;;
43325;SDS011;28920;59.862;30.636;2023-02-22T10:00:55;19.83;;;9.35;;
43325;SDS011;28920;59.862;30.636;2023-02-22T10:03:25;15.73;;;8.43;;
43325;SDS011;28920;59.862;30.636;2023-02-22T10:05:55;15.30;;;7.03;;
43325;SDS011;28920;59.862;30.636;2023-02-22T10:08:26;12.80;;;7.12;;
43325;SDS011;28920;59.862;30.636;2023-02-22T10:10:56;12.25;;;6.72;;
43325;SDS011;28920;59.862;30.636;2023-02-22T10:13:28;14.23;;;7.87;;
43325;SDS011;28920;59.862;30.636;2023-02-22T10:15:58;13.75;;;6.62;;
43325;SDS011;28920;59.862;30.636;2023-02-22T10:18:34;14.85;;;8.07;;
43325;SDS011;28920;59.862;30.636;2023-02-22T10:21:06;13.85;;;7.03;;
43325;SDS011;28920;59.862;30.636;2023-02-22T10:23:37;11.57;;;7.60;;
43325;SDS011;28920;59.862;30.636;2023-02-22T10:26:13;20.92;;;7.40;;
43325;SDS011;28920;59.862;30.636;2023-02-22T10:28:42;13.48;;;6.93;;
43325;SDS011;28920;59.862;30.636;2023-02-22T10:31:13;12.45;;;6.03;;
43325;SDS011;28920;59.862;30.636;2023-02-22T10:36:09;15.38;;;6.25;;
43325;SDS011;28920;59.862;30.636;2023-02-22T10:38:41;14.38;;;7.22;;
43325;SDS011;28920;59.862;30.636;2023-02-22T10:41:18;22.30;;;7.57;;
43325;SDS011;28920;59.862;30.636;2023-02-22T10:43:46;11.70;;;6.68;;
43325;SDS011;28920;59.862;30.636;2023-02-22T10:46:13;18.10;;;8.15;;
43325;SDS011;28920;59.862;30.636;2023-02-22T10:48:41;14.30;;;6.82;;
43325;SDS011;28920;59.862;30.636;2023-02-22T10:51:10;12.75;;;6.28;;
43325;SDS011;28920;59.862;30.636;2023-02-22T10:53:36;11.07;;;6.32;;
43325;SDS011;28920;59.862;30.636;2023-02-22T10:56:05;11.82;;;6.40;;
43325;SDS011;28920;59.862;30.636;2023-02-22T10:58:38;15.15;;;7.57;;
43325;SDS011;28920;59.862;30.636;2023-02-22T11:01:16;11.60;;;5.97;;
43325;SDS011;28920;59.862;30.636;2023-02-22T11:03:43;10.85;;;6.07;;
43325;SDS011;28920;59.862;30.636;2023-02-22T11:06:17;15.82;;;8.07;;
43325;SDS011;28920;59.862;30.636;2023-02-22T11:08:44;18.60;;;12.15;;
43325;SDS011;28920;59.862;30.636;2023-02-22T11:11:20;12.98;;;7.78;;
43325;SDS011;28920;59.862;30.636;2023-02-22T11:13:53;10.10;;;5.60;;
43325;SDS011;28920;59.862;30.636;2023-02-22T11:16:24;9.35;;;5.18;;
43325;SDS011;28920;59.862;30.636;2023-02-22T11:18:57;13.55;;;6.70;;
43325;SDS011;28920;59.862;30.636;2023-02-22T11:21:25;10.88;;;6.22;;
43325;SDS011;28920;59.862;30.636;2023-02-22T11:23:59;11.18;;;5.80;;
43325;SDS011;28920;59.862;30.636;2023-02-22T11:26:27;10.05;;;5.45;;
43325;SDS011;28920;59.862;30.636;2023-02-22T11:28:54;11.55;;;6.28;;
43325;SDS011;28920;59.862;30.636;2023-02-22T11:31:22;9.18;;;5.68;;
43325;SDS011;28920;59.862;30.636;2023-02-22T11:33:51;11.85;;;6.28;;
43325;SDS011;28920;59.862;30.636;2023-02-22T11:36:28;14.85;;;6.47;;
43325;SDS011;28920;59.862;30.636;2023-02-22T11:38:56;13.10;;;7.80;;
43325;SDS011;28920;59.862;30.636;2023-02-22T11:41:26;11.95;;;6.60;;
43325;SDS011;28920;59.862;30.636;2023-02-22T11:43:54;10.35;;;5.47;;
43325;SDS011;28920;59.862;30.636;2023-02-22T11:46:37;11.80;;;6.15;;
43325;SDS011;28920;59.862;30.636;2023-02-22T11:49:06;12.95;;;6.47;;
43325;SDS011;28920;59.862;30.636;2023-02-22T11:51:36;11.52;;;5.93;;
43325;SDS011;28920;59.862;30.636;2023-02-22T11:54:10;28.95;;;7.28;;
43325;SDS011;28920;59.862;30.636;2023-02-22T11:56:38;12.30;;;5.20;;
43325;SDS011;28920;59.862;30.636;2023-02-22T11:59:10;13.07;;;5.22;;
43325;SDS011;28920;59.862;30.636;2023-02-22T12:01:40;13.00;;;6.10;;
43325;SDS011;28920;59.862;30.636;2023-02-22T12:06:57;10.05;;;4.82;;
43325;SDS011;28920;59.862;30.636;2023-02-22T12:09:31;9.02;;;5.32;;
43325;SDS011;28920;59.862;30.636;2023-02-22T12:12:03;8.98;;;5.47;;
43325;SDS011;28920;59.862;30.636;2023-02-22T12:14:36;9.40;;;5.18;;
43325;SDS011;28920;59.862;30.636;2023-02-22T12:17:09;10.90;;;5.60;;
43325;SDS011;28920;59.862;30.636;2023-02-22T12:19:40;8.27;;;5.47;;
43325;SDS011;28920;59.862;30.636;2023-02-22T12:22:09;15.38;;;6.12;;
43325;SDS011;28920;59.862;30.636;2023-02-22T12:24:38;9.82;;;6.18;;
43325;SDS011;28920;59.862;30.636;2023-02-22T12:27:07;10.77;;;5.37;;
43325;SDS011;28920;59.862;30.636;2023-02-22T12:29:36;11.30;;;6.12;;
43325;SDS011;28920;59.862;30.636;2023-02-22T12:32:05;9.98;;;6.12;;
43325;SDS011;28920;59.862;30.636;2023-02-22T12:34:34;10.57;;;6.28;;
43325;SDS011;28920;59.862;30.636;2023-02-22T12:37:04;12.32;;;7.00;;
43325;SDS011;28920;59.862;30.636;2023-02-22T12:39:37;9.45;;;6.28;;
43325;SDS011;28920;59.862;30.636;2023-02-22T12:42:06;14.38;;;7.00;;
43325;SDS011;28920;59.862;30.636;2023-02-22T12:44:38;11.55;;;5.97;;
43325;SDS011;28920;59.862;30.636;2023-02-22T12:47:06;9.63;;;5.07;;
43325;SDS011;28920;59.862;30.636;2023-02-22T12:49:35;10.90;;;5.80;;
43325;SDS011;28920;59.862;30.636;2023-02-22T12:52:06;10.50;;;5.03;;
43325;SDS011;28920;59.862;30.636;2023-02-22T12:57:02;9.63;;;4.18;;
43325;SDS011;28920;59.862;30.636;2023-02-22T12:59:31;9.68;;;5.32;;
43325;SDS011;28920;59.862;30.636;2023-02-22T13:02:02;10.88;;;5.35;;
43325;SDS011;28920;59.862;30.636;2023-02-22T13:04:30;10.77;;;5.32;;
43325;SDS011;28920;59.862;30.636;2023-02-22T13:09:48;9.70;;;5.28;;
43325;SDS011;28920;59.862;30.636;2023-02-22T13:12:18;7.35;;;3.83;;
43325;SDS011;28920;59.862;30.636;2023-02-22T13:14:53;10.48;;;4.93;;
43325;SDS011;28920;59.862;30.636;2023-02-22T13:17:25;11.02;;;6.65;;
43325;SDS011;28920;59.862;30.636;2023-02-22T13:19:56;5.53;;;3.10;;
43325;SDS011;28920;59.862;30.636;2023-02-22T13:22:26;11.15;;;5.12;;
43325;SDS011;28920;59.862;30.636;2023-02-22T13:24:59;11.43;;;6.57;;
43325;SDS011;28920;59.862;30.636;2023-02-22T13:27:30;13.60;;;6.28;;
43325;SDS011;28920;59.862;30.636;2023-02-22T13:29:59;12.32;;;5.43;;
43325;SDS011;28920;59.862;30.636;2023-02-22T13:32:32;8.35;;;5.10;;
43325;SDS011;28920;59.862;30.636;2023-02-22T13:40:17;13.70;;;6.35;;
43325;SDS011;28920;59.862;30.636;2023-02-22T13:42:50;10.43;;;5.82;;
43325;SDS011;28920;59.862;30.636;2023-02-22T13:48:16;9.45;;;4.55;;
43325;SDS011;28920;59.862;30.636;2023-02-22T13:53:34;8.77;;;4.97;;
43325;SDS011;28920;59.862;30.636;2023-02-22T13:56:03;13.88;;;7.10;;
43325;SDS011;28920;59.862;30.636;2023-02-22T13:58:30;11.02;;;6.00;;
43325;SDS011;28920;59.862;30.636;2023-02-22T14:00:57;11.43;;;5.53;;
43325;SDS011;28920;59.862;30.636;2023-02-22T14:03:35;8.93;;;4.60;;
43325;SDS011;28920;59.862;30.636;2023-02-22T14:06:06;13.83;;;6.17;;
43325;SDS011;28920;59.862;30.636;2023-02-22T14:08:42;14.35;;;7.37;;
43325;SDS011;28920;59.862;30.636;2023-02-22T14:14:11;18.95;;;9.70;;
43325;SDS011;28920;59.862;30.636;2023-02-22T14:16:39;17.95;;;8.98;;
43325;SDS011;28920;59.862;30.636;2023-02-22T14:19:12;37.13;;;18.52;;
43325;SDS011;28920;59.862;30.636;2023-02-22T14:21:53;37.22;;;18.05;;
43325;SDS011;28920;59.862;30.636;2023-02-22T14:24:21;31.02;;;13.20;;
43325;SDS011;28920;59.862;30.636;2023-02-22T14:26:57;27.75;;;12.10;;
43325;SDS011;28920;59.862;30.636;2023-02-22T14:29:24;26.17;;;11.80;;
43325;SDS011;28920;59.862;30.636;2023-02-22T14:31:57;24.95;;;12.45;;
43325;SDS011;28920;59.862;30.636;2023-02-22T14:34:38;21.73;;;10.90;;
43325;SDS011;28920;59.862;30.636;2023-02-22T14:37:06;22.42;;;11.20;;
43325;SDS011;28920;59.862;30.636;2023-02-22T14:39:34;22.17;;;11.05;;
43325;SDS011;28920;59.862;30.636;2023-02-22T14:42:04;29.02;;;12.43;;
43325;SDS011;28920;59.862;30.636;2023-02-22T14:44:32;23.98;;;12.50;;
43325;SDS011;28920;59.862;30.636;2023-02-22T14:47:02;39.97;;;20.40;;
43325;SDS011;28920;59.862;30.636;2023-02-22T14:49:30;41.08;;;18.33;;
43325;SDS011;28920;59.862;30.636;2023-02-22T14:51:59;59.38;;;24.92;;
43325;SDS011;28920;59.862;30.636;2023-02-22T14:54:30;46.85;;;22.87;;
43325;SDS011;28920;59.862;30.636;2023-02-22T14:57:01;83.68;;;31.48;;
43325;SDS011;28920;59.862;30.636;2023-02-22T14:59:45;69.90;;;25.67;;
43325;SDS011;28920;59.862;30.636;2023-02-22T15:02:12;69.35;;;26.83;;
43325;SDS011;28920;59.862;30.636;2023-02-22T15:04:39;69.32;;;31.70;;
43325;SDS011;28920;59.862;30.636;2023-02-22T15:07:18;71.80;;;32.22;;